Time;durP1;ratioP1;P1;durP2;ratioP2;P2;SDS_P1;SDS_P2;PMS_P1;PMS_P2;Temp;Humidity;BMP_temperature;BMP_pressure;BME280_temperature;BME280_humidity;BME280_pressure;Samples;Min_cycle;Max_cycle;Signal;HPM_P1;HPM_P2
2021/09/30 00:01:37;;;;;;;16.73;10.25;;;;;;;;;;4446209;32;20640;-54
2021/09/30 00:04:03;;;;;;;17.00;9.65;;;;;;;;;;4441165;32;20239;-54
2021/09/30 00:06:30;;;;;;;14.25;9.80;;;;;;;;;;4447435;32;20723;-54
2021/09/30 00:08:55;;;;;;;12.70;9.88;;;;;;;;;;4438721;32;20312;-54
2021/09/30 00:11:25;;;;;;;11.95;9.77;;;;;;;;;;4443175;32;20561;-54
2021/09/30 00:14:04;;;;;;;14.50;9.80;;;;;;;;;;4440662;32;20228;-53
2021/09/30 00:41:19;;;;;;;10.65;9.30;;;;;;;;;;4437076;32;20266;-53
2021/09/30 00:51:43;;;;;;;15.27;8.63;;;;;;;;;;4450492;32;20265;-53
2021/09/30 02:59:12;;;;;;;13.48;9.27;;;;;;;;;;4432955;32;20248;-53
2021/09/30 03:01:40;;;;;;;15.48;11.35;;;;;;;;;;4438209;32;20204;-53
2021/09/30 03:04:07;;;;;;;15.27;11.18;;;;;;;;;;4448901;32;20389;-53
2021/09/30 03:06:33;;;;;;;17.48;12.48;;;;;;;;;;4448369;32;20517;-53
2021/09/30 03:09:02;;;;;;;16.73;12.75;;;;;;;;;;4448602;32;20221;-53
2021/09/30 03:11:29;;;;;;;13.93;11.15;;;;;;;;;;4448447;32;20189;-54
2021/09/30 03:13:58;;;;;;;25.95;13.60;;;;;;;;;;4448176;32;20569;-53
2021/09/30 03:16:36;;;;;;;24.77;12.20;;;;;;;;;;4448392;32;20209;-53
2021/09/30 03:19:16;;;;;;;23.25;13.15;;;;;;;;;;4447696;32;20695;-54
2021/09/30 03:22:43;;;;;;;24.23;14.30;;;;;;;;;;4448398;32;20208;-53
2021/09/30 03:24:40;;;;;;;24.37;15.40;;;;;;;;;;4441083;32;20263;-53
2021/09/30 03:27:06;;;;;;;20.92;13.38;;;;;;;;;;4447971;32;20254;-53
2021/09/30 03:29:32;;;;;;;18.87;13.40;;;;;;;;;;4448204;32;20339;-54
2021/09/30 03:31:59;;;;;;;24.80;12.73;;;;;;;;;;4447829;32;20337;-53
2021/09/30 03:34:25;;;;;;;18.42;12.80;;;;;;;;;;4448172;32;20213;-53
2021/09/30 03:36:50;;;;;;;18.87;13.65;;;;;;;;;;4447958;32;20208;-53
2021/09/30 03:39:23;;;;;;;17.65;11.80;;;;;;;;;;4448104;32;20605;-53
2021/09/30 03:41:48;;;;;;;22.83;12.30;;;;;;;;;;4448175;32;20229;-53
2021/09/30 03:44:14;;;;;;;17.37;12.02;;;;;;;;;;4446605;32;20258;-53
2021/09/30 03:46:39;;;;;;;19.20;13.27;;;;;;;;;;4448071;32;20317;-53
2021/09/30 03:49:11;;;;;;;17.70;12.95;;;;;;;;;;4447776;32;20308;-53
2021/09/30 03:59:26;;;;;;;16.87;13.05;;;;;;;;;;4447900;32;20726;-53
2021/09/30 04:01:58;;;;;;;25.35;14.95;;;;;;;;;;4440359;32;20260;-54
2021/09/30 04:04:27;;;;;;;20.85;14.02;;;;;;;;;;4432839;32;20250;-54
2021/09/30 04:06:54;;;;;;;24.95;17.85;;;;;;;;;;4432171;32;20275;-54
2021/09/30 04:09:26;;;;;;;20.88;15.63;;;;;;;;;;4432089;32;20728;-54
2021/09/30 04:11:51;;;;;;;21.20;12.95;;;;;;;;;;4432195;32;20201;-53
2021/09/30 04:14:17;;;;;;;28.35;15.60;;;;;;;;;;4431928;32;20323;-54
2021/09/30 04:16:47;;;;;;;23.30;16.45;;;;;;;;;;4432174;32;20700;-54
2021/09/30 04:19:14;;;;;;;46.95;22.52;;;;;;;;;;4432046;32;20245;-53
2021/09/30 04:21:39;;;;;;;31.75;19.37;;;;;;;;;;4432032;32;20570;-53
2021/09/30 04:24:05;;;;;;;37.35;19.98;;;;;;;;;;4433766;32;20339;-53
2021/09/30 04:26:30;;;;;;;29.87;19.10;;;;;;;;;;4435146;32;20245;-53
2021/09/30 04:28:56;;;;;;;34.80;20.52;;;;;;;;;;4444722;32;20308;-53
2021/09/30 04:31:23;;;;;;;26.85;17.75;;;;;;;;;;4450246;32;20204;-54
2021/09/30 04:33:50;;;;;;;28.12;19.33;;;;;;;;;;4450179;32;20285;-53
2021/09/30 04:36:16;;;;;;;31.05;18.37;;;;;;;;;;4450377;32;20744;-53
2021/09/30 04:38:41;;;;;;;27.70;18.37;;;;;;;;;;4450612;32;20220;-53
2021/09/30 04:41:06;;;;;;;31.27;18.95;;;;;;;;;;4449238;32;20610;-54
2021/09/30 04:43:32;;;;;;;28.33;17.23;;;;;;;;;;4450396;32;20569;-53
2021/09/30 04:45:58;;;;;;;30.05;16.85;;;;;;;;;;4450042;32;20204;-55
2021/09/30 04:48:23;;;;;;;25.35;16.20;;;;;;;;;;4449691;32;20657;-53
2021/09/30 04:50:49;;;;;;;25.52;17.10;;;;;;;;;;4450352;32;20354;-54
2021/09/30 04:53:14;;;;;;;28.92;17.60;;;;;;;;;;4449226;32;20791;-54
2021/09/30 04:55:40;;;;;;;31.00;18.85;;;;;;;;;;4450169;32;20370;-54
2021/09/30 04:58:05;;;;;;;31.35;19.77;;;;;;;;;;4450038;32;20286;-55
2021/09/30 05:00:31;;;;;;;26.92;16.87;;;;;;;;;;4450180;32;20284;-54
2021/09/30 05:02:56;;;;;;;37.70;20.30;;;;;;;;;;4449045;32;20424;-54
2021/09/30 05:05:22;;;;;;;29.83;18.10;;;;;;;;;;4449449;32;20251;-54
2021/09/30 05:07:47;;;;;;;33.85;18.95;;;;;;;;;;4449268;32;20797;-54
2021/09/30 05:10:17;;;;;;;49.42;24.40;;;;;;;;;;4448727;32;20694;-54
2021/09/30 05:12:43;;;;;;;31.08;18.37;;;;;;;;;;4448769;32;20650;-53
2021/09/30 05:15:09;;;;;;;36.30;18.75;;;;;;;;;;4447821;32;20271;-53
2021/09/30 05:17:35;;;;;;;43.00;24.15;;;;;;;;;;4448015;32;20340;-53
2021/09/30 05:20:00;;;;;;;26.87;17.33;;;;;;;;;;4448821;32;20289;-52
2021/09/30 05:22:25;;;;;;;35.13;18.35;;;;;;;;;;4448197;32;20217;-53
2021/09/30 05:24:51;;;;;;;34.45;22.17;;;;;;;;;;4449480;32;20405;-52
2021/09/30 05:27:16;;;;;;;40.80;20.77;;;;;;;;;;4447986;32;20949;-54
2021/09/30 05:29:42;;;;;;;41.03;21.23;;;;;;;;;;4447622;32;20280;-52
2021/09/30 05:32:08;;;;;;;38.78;22.90;;;;;;;;;;4446917;32;20232;-53
2021/09/30 05:34:33;;;;;;;40.35;22.52;;;;;;;;;;4446369;32;20783;-53
2021/09/30 05:36:59;;;;;;;38.83;22.73;;;;;;;;;;4447116;32;20608;-53
2021/09/30 05:39:24;;;;;;;35.35;23.83;;;;;;;;;;4448755;32;20299;-53
2021/09/30 05:41:53;;;;;;;38.83;22.20;;;;;;;;;;4448094;32;20255;-52
2021/09/30 05:44:22;;;;;;;34.37;21.23;;;;;;;;;;4448400;32;20254;-53
2021/09/30 05:46:53;;;;;;;45.27;22.03;;;;;;;;;;4448509;32;20297;-53
2021/09/30 05:49:19;;;;;;;35.70;21.08;;;;;;;;;;4447060;32;20248;-52
2021/09/30 05:51:45;;;;;;;40.92;21.80;;;;;;;;;;4447198;32;20337;-52
2021/09/30 05:54:10;;;;;;;42.55;22.62;;;;;;;;;;4445709;32;20263;-54
2021/09/30 05:56:36;;;;;;;31.90;19.83;;;;;;;;;;4444699;32;20271;-51
2021/09/30 05:59:01;;;;;;;42.60;22.45;;;;;;;;;;4445910;32;20388;-53
2021/09/30 06:16:44;;;;;;;41.92;25.40;;;;;;;;;;4431080;32;20261;-55
2021/09/30 06:19:10;;;;;;;40.47;25.58;;;;;;;;;;4431414;32;20228;-53
2021/09/30 06:21:36;;;;;;;45.42;23.52;;;;;;;;;;4444292;32;20209;-54
2021/09/30 06:24:02;;;;;;;41.88;22.45;;;;;;;;;;4448821;32;20352;-54
2021/09/30 06:26:28;;;;;;;40.72;21.73;;;;;;;;;;4441209;32;20652;-54
2021/09/30 06:28:54;;;;;;;44.60;22.37;;;;;;;;;;4436102;32;20220;-53
2021/09/30 06:31:20;;;;;;;33.90;21.87;;;;;;;;;;4447831;32;20539;-53
2021/09/30 06:33:45;;;;;;;34.08;22.00;;;;;;;;;;4444925;32;20374;-53
2021/09/30 06:36:10;;;;;;;40.30;23.07;;;;;;;;;;4446561;32;20282;-54
2021/09/30 06:38:36;;;;;;;32.97;21.40;;;;;;;;;;4447897;32;20450;-53
2021/09/30 06:41:01;;;;;;;38.35;20.95;;;;;;;;;;4447784;32;20757;-53
2021/09/30 06:43:27;;;;;;;32.28;20.90;;;;;;;;;;4447975;32;20684;-54
2021/09/30 06:45:52;;;;;;;32.90;19.23;;;;;;;;;;4446793;32;20570;-54
2021/09/30 06:48:18;;;;;;;28.50;19.90;;;;;;;;;;4444914;32;20761;-53
2021/09/30 06:50:44;;;;;;;38.13;22.25;;;;;;;;;;4444995;32;20838;-52
2021/09/30 06:53:09;;;;;;;34.45;19.52;;;;;;;;;;4445923;32;20326;-52
2021/09/30 06:55:35;;;;;;;32.05;20.00;;;;;;;;;;4447533;32;20284;-52
2021/09/30 06:58:00;;;;;;;34.30;21.95;;;;;;;;;;4447666;32;20534;-54
2021/09/30 07:00:27;;;;;;;37.67;20.48;;;;;;;;;;4447211;32;20288;-52
2021/09/30 07:02:53;;;;;;;34.13;18.87;;;;;;;;;;4447177;32;20244;-53
2021/09/30 07:05:19;;;;;;;36.47;22.17;;;;;;;;;;4447657;32;20309;-53
2021/09/30 07:07:45;;;;;;;32.08;20.48;;;;;;;;;;4447617;32;20330;-53
2021/09/30 07:10:10;;;;;;;36.40;21.65;;;;;;;;;;4447562;32;20624;-54
2021/09/30 07:12:37;;;;;;;33.92;21.02;;;;;;;;;;4447780;32;20568;-52
2021/09/30 07:15:04;;;;;;;36.22;20.85;;;;;;;;;;4447618;32;20255;-53
2021/09/30 07:17:30;;;;;;;35.40;20.83;;;;;;;;;;4447443;32;20285;-53
2021/09/30 07:19:57;;;;;;;26.42;18.85;;;;;;;;;;4447023;32;20291;-53
2021/09/30 07:22:23;;;;;;;29.48;19.33;;;;;;;;;;4446668;32;20256;-52
2021/09/30 07:24:49;;;;;;;20.70;14.23;;;;;;;;;;4448128;32;20340;-57
2021/09/30 07:27:15;;;;;;;19.02;12.65;;;;;;;;;;4447561;32;20220;-53
2021/09/30 07:29:40;;;;;;;27.13;14.38;;;;;;;;;;4446144;32;20279;-55
2021/09/30 07:32:06;;;;;;;26.45;16.00;;;;;;;;;;4445512;32;20267;-53
2021/09/30 07:34:33;;;;;;;26.95;13.98;;;;;;;;;;4447488;32;20723;-52
2021/09/30 07:36:59;;;;;;;22.75;13.05;;;;;;;;;;4447055;32;20235;-52
2021/09/30 07:39:25;;;;;;;22.55;13.55;;;;;;;;;;4447593;32;20318;-52
2021/09/30 07:41:50;;;;;;;26.55;14.07;;;;;;;;;;4446639;32;20232;-54
2021/09/30 07:44:16;;;;;;;21.58;14.68;;;;;;;;;;4447390;32;20348;-53
2021/09/30 07:46:43;;;;;;;22.80;14.20;;;;;;;;;;4446585;32;20212;-53
2021/09/30 07:49:09;;;;;;;19.80;10.00;;;;;;;;;;4446441;32;20315;-52
2021/09/30 07:51:36;;;;;;;19.85;13.68;;;;;;;;;;4446524;32;20630;-53
2021/09/30 07:54:04;;;;;;;22.33;13.32;;;;;;;;;;4446026;32;20229;-54
2021/09/30 07:56:30;;;;;;;19.50;13.50;;;;;;;;;;4447322;32;20270;-53
2021/09/30 07:58:55;;;;;;;22.58;12.82;;;;;;;;;;4446393;32;20616;-53
2021/09/30 08:01:22;;;;;;;25.27;13.27;;;;;;;;;;4447123;32;20667;-52
2021/09/30 08:03:51;;;;;;;19.70;13.27;;;;;;;;;;4447245;32;20747;-52
2021/09/30 08:06:18;;;;;;;16.75;12.32;;;;;;;;;;4446297;32;20255;-53
2021/09/30 08:08:43;;;;;;;23.48;13.02;;;;;;;;;;4447281;32;20331;-54
2021/09/30 08:11:09;;;;;;;15.43;12.15;;;;;;;;;;4447278;32;20196;-53
2021/09/30 08:13:34;;;;;;;15.23;11.30;;;;;;;;;;4446028;32;20254;-53
2021/09/30 08:16:00;;;;;;;18.30;11.32;;;;;;;;;;4446992;32;20259;-53
2021/09/30 08:18:26;;;;;;;15.05;11.80;;;;;;;;;;4447206;32;20584;-53
2021/09/30 08:20:52;;;;;;;19.90;13.00;;;;;;;;;;4446896;32;20204;-53
2021/09/30 08:23:18;;;;;;;15.27;12.27;;;;;;;;;;4447072;32;20316;-53
2021/09/30 08:25:44;;;;;;;19.42;12.68;;;;;;;;;;4446997;32;20276;-53
2021/09/30 08:28:11;;;;;;;22.80;13.40;;;;;;;;;;4447124;32;20533;-52
2021/09/30 08:30:38;;;;;;;17.58;14.05;;;;;;;;;;4447082;32;20228;-53
2021/09/30 08:33:04;;;;;;;19.17;12.32;;;;;;;;;;4446868;32;20284;-54
2021/09/30 08:35:29;;;;;;;16.90;12.37;;;;;;;;;;4446920;32;20292;-53
2021/09/30 08:37:55;;;;;;;20.75;11.02;;;;;;;;;;4446593;32;20316;-53
2021/09/30 08:40:21;;;;;;;21.48;13.55;;;;;;;;;;4447173;32;20283;-54
2021/09/30 08:42:49;;;;;;;21.75;15.43;;;;;;;;;;4446829;32;20584;-54
2021/09/30 08:45:20;;;;;;;26.73;18.70;;;;;;;;;;4446422;32;20344;-53
2021/09/30 08:47:56;;;;;;;27.95;16.92;;;;;;;;;;4446296;32;20647;-52
2021/09/30 08:50:22;;;;;;;27.98;16.70;;;;;;;;;;4445979;32;20258;-53
2021/09/30 08:52:47;;;;;;;35.38;17.58;;;;;;;;;;4446853;32;20266;-52
2021/09/30 08:55:13;;;;;;;28.42;16.98;;;;;;;;;;4446524;32;20673;-52
2021/09/30 08:57:44;;;;;;;25.88;17.05;;;;;;;;;;4446618;32;20295;-53
2021/09/30 09:00:10;;;;;;;24.87;14.15;;;;;;;;;;4447202;32;20453;-53
2021/09/30 09:02:43;;;;;;;23.00;14.98;;;;;;;;;;4446061;32;20333;-53
2021/09/30 09:05:09;;;;;;;25.92;14.98;;;;;;;;;;4446149;32;20668;-53
2021/09/30 09:07:34;;;;;;;28.60;16.23;;;;;;;;;;4446857;32;20293;-53
2021/09/30 09:10:05;;;;;;;28.60;15.38;;;;;;;;;;4447752;32;20286;-55
2021/09/30 09:12:34;;;;;;;22.20;14.52;;;;;;;;;;4448444;32;20252;-53
2021/09/30 09:15:00;;;;;;;22.17;15.43;;;;;;;;;;4449133;32;20519;-54
2021/09/30 09:17:25;;;;;;;23.95;17.12;;;;;;;;;;4449321;32;20696;-54
2021/09/30 09:19:55;;;;;;;28.95;19.77;;;;;;;;;;4449566;32;20299;-54
2021/09/30 09:22:22;;;;;;;48.85;21.90;;;;;;;;;;4449950;32;20545;-54
2021/09/30 09:25:09;;;;;;;38.15;21.92;;;;;;;;;;4449934;32;20224;-54
2021/09/30 09:27:46;;;;;;;35.15;20.23;;;;;;;;;;4445765;32;20423;-54
2021/09/30 09:30:36;;;;;;;34.10;18.80;;;;;;;;;;4448442;32;20204;-55
2021/09/30 09:33:08;;;;;;;29.70;16.83;;;;;;;;;;4449415;32;20248;-54
2021/09/30 09:36:19;;;;;;;31.65;18.37;;;;;;;;;;4449700;32;20268;-55
2021/09/30 09:38:43;;;;;;;27.75;17.05;;;;;;;;;;4448437;32;20333;-55
2021/09/30 09:41:14;;;;;;;24.00;12.77;;;;;;;;;;4449258;32;20231;-55
2021/09/30 09:43:42;;;;;;;19.92;14.43;;;;;;;;;;4449505;32;20702;-55
2021/09/30 09:46:09;;;;;;;25.60;13.40;;;;;;;;;;4449094;32;20236;-54
2021/09/30 09:48:36;;;;;;;25.33;16.27;;;;;;;;;;4449142;32;20303;-53
2021/09/30 09:51:10;;;;;;;21.08;13.90;;;;;;;;;;4449420;32;20224;-53
2021/09/30 09:53:36;;;;;;;35.03;15.27;;;;;;;;;;4448283;32;20343;-54
2021/09/30 09:56:11;;;;;;;23.30;15.13;;;;;;;;;;4448886;32;20247;-55
2021/09/30 09:59:09;;;;;;;24.08;13.70;;;;;;;;;;4448781;32;20242;-54
2021/09/30 10:01:37;;;;;;;22.83;13.15;;;;;;;;;;4412135;32;20240;-54
2021/09/30 10:04:02;;;;;;;19.20;12.83;;;;;;;;;;4449227;32;20228;-55
2021/09/30 10:06:30;;;;;;;21.33;14.50;;;;;;;;;;4449165;32;20264;-56
2021/09/30 10:08:56;;;;;;;19.95;12.60;;;;;;;;;;4447721;32;20337;-55
2021/09/30 10:11:22;;;;;;;19.52;12.27;;;;;;;;;;4449135;32;20200;-54
2021/09/30 10:13:48;;;;;;;20.85;12.20;;;;;;;;;;4449185;32;20252;-53
2021/09/30 10:16:24;;;;;;;20.15;13.23;;;;;;;;;;4448312;32;20259;-54
2021/09/30 10:18:52;;;;;;;18.48;12.93;;;;;;;;;;4448658;32;20268;-53
2021/09/30 10:21:18;;;;;;;19.12;11.43;;;;;;;;;;4448516;32;20278;-54
2021/09/30 10:23:50;;;;;;;16.77;12.05;;;;;;;;;;4447655;32;20713;-54
2021/09/30 10:26:19;;;;;;;15.18;11.35;;;;;;;;;;4449429;32;20661;-54
2021/09/30 10:28:45;;;;;;;19.12;11.95;;;;;;;;;;4449254;32;20766;-54
2021/09/30 10:31:25;;;;;;;18.85;11.82;;;;;;;;;;4449051;32;20212;-54
2021/09/30 10:33:52;;;;;;;18.27;11.40;;;;;;;;;;4436034;32;20384;-52
2021/09/30 10:36:43;;;;;;;18.48;10.75;;;;;;;;;;4448682;32;20258;-53
2021/09/30 10:39:31;;;;;;;19.60;10.75;;;;;;;;;;4448711;32;20548;-53
2021/09/30 10:42:02;;;;;;;18.75;11.70;;;;;;;;;;4448314;32;20291;-54
2021/09/30 10:44:34;;;;;;;16.50;10.70;;;;;;;;;;4447766;32;20718;-53
2021/09/30 10:47:09;;;;;;;20.02;10.95;;;;;;;;;;4432409;32;20697;-54
2021/09/30 10:49:48;;;;;;;15.55;11.00;;;;;;;;;;4446383;32;20239;-54
2021/09/30 10:52:29;;;;;;;23.33;12.32;;;;;;;;;;4445547;32;20518;-53
2021/09/30 10:55:00;;;;;;;15.63;10.25;;;;;;;;;;4446469;32;20243;-53
2021/09/30 10:57:46;;;;;;;13.32;10.77;;;;;;;;;;4446369;32;20260;-54
2021/09/30 11:00:17;;;;;;;16.08;10.95;;;;;;;;;;4442719;32;20279;-55
2021/09/30 11:03:01;;;;;;;12.88;10.05;;;;;;;;;;4446047;32;20255;-54
2021/09/30 11:05:38;;;;;;;17.75;12.65;;;;;;;;;;4435602;32;20299;-54
2021/09/30 11:08:26;;;;;;;21.48;12.35;;;;;;;;;;4448255;32;20208;-54
2021/09/30 11:11:07;;;;;;;17.75;11.82;;;;;;;;;;4447994;32;20303;-55
2021/09/30 11:13:47;;;;;;;17.55;12.60;;;;;;;;;;4448457;32;20254;-54
2021/09/30 11:16:18;;;;;;;26.65;15.32;;;;;;;;;;4446469;32;20782;-56
2021/09/30 11:18:52;;;;;;;24.35;13.32;;;;;;;;;;4446295;32;20285;-54
2021/09/30 11:21:34;;;;;;;20.75;13.35;;;;;;;;;;4439140;32;20295;-53
2021/09/30 11:24:22;;;;;;;27.52;17.05;;;;;;;;;;4431164;32;20228;-54
2021/09/30 11:26:54;;;;;;;29.50;15.30;;;;;;;;;;4431218;32;20406;-54
2021/09/30 11:29:19;;;;;;;33.72;16.92;;;;;;;;;;4431262;32;20385;-54
2021/09/30 11:31:46;;;;;;;28.00;16.77;;;;;;;;;;4432665;32;20379;-54
2021/09/30 11:34:24;;;;;;;27.05;18.25;;;;;;;;;;4443428;32;20648;-55
2021/09/30 11:36:51;;;;;;;26.83;15.98;;;;;;;;;;4431022;32;20202;-55
2021/09/30 11:39:17;;;;;;;40.05;19.75;;;;;;;;;;4431989;32;20727;-54
2021/09/30 11:41:45;;;;;;;30.10;16.37;;;;;;;;;;4443073;32;20262;-54
2021/09/30 11:44:17;;;;;;;24.60;15.98;;;;;;;;;;4447075;32;20243;-55
2021/09/30 11:46:43;;;;;;;24.85;15.05;;;;;;;;;;4434149;32;20256;-55
2021/09/30 11:49:11;;;;;;;18.37;13.75;;;;;;;;;;4446598;32;20324;-55
2021/09/30 11:51:42;;;;;;;19.42;12.73;;;;;;;;;;4444908;32;20208;-55
2021/09/30 11:54:12;;;;;;;27.30;14.00;;;;;;;;;;4431855;32;20636;-55
2021/09/30 11:56:53;;;;;;;20.92;13.23;;;;;;;;;;4447147;32;20232;-55
2021/09/30 11:59:22;;;;;;;20.33;13.45;;;;;;;;;;4446524;32;20236;-56
2021/09/30 12:01:49;;;;;;;22.45;13.60;;;;;;;;;;4439889;32;20220;-55
2021/09/30 12:04:49;;;;;;;22.17;13.95;;;;;;;;;;4431413;32;20311;-55
2021/09/30 12:07:14;;;;;;;16.27;12.40;;;;;;;;;;4430519;32;20240;-55
2021/09/30 12:09:40;;;;;;;24.87;15.48;;;;;;;;;;4430530;32;20237;-53
2021/09/30 12:12:05;;;;;;;25.48;14.27;;;;;;;;;;4432186;32;20295;-54
2021/09/30 12:14:36;;;;;;;17.80;13.45;;;;;;;;;;4431312;32;20327;-55
2021/09/30 12:17:05;;;;;;;19.35;14.60;;;;;;;;;;4438719;32;20668;-54
2021/09/30 12:19:42;;;;;;;17.42;14.07;;;;;;;;;;4447956;32;20659;-54
2021/09/30 12:22:13;;;;;;;22.37;14.95;;;;;;;;;;4447517;32;20325;-54
2021/09/30 12:24:50;;;;;;;17.73;12.60;;;;;;;;;;4447746;32;20308;-54
2021/09/30 12:27:17;;;;;;;21.45;15.05;;;;;;;;;;4447530;32;20856;-54
2021/09/30 12:29:49;;;;;;;19.58;13.27;;;;;;;;;;4447327;32;20296;-54
2021/09/30 12:32:23;;;;;;;19.50;13.70;;;;;;;;;;4446562;32;20224;-53
2021/09/30 12:35:01;;;;;;;15.82;11.50;;;;;;;;;;4447088;32;20209;-54
2021/09/30 12:37:28;;;;;;;18.60;13.70;;;;;;;;;;4446732;32;20312;-55
2021/09/30 12:40:10;;;;;;;21.55;14.85;;;;;;;;;;4447062;32;20526;-55
2021/09/30 12:42:37;;;;;;;21.73;13.30;;;;;;;;;;4447492;32;20386;-55
2021/09/30 12:45:05;;;;;;;17.87;12.95;;;;;;;;;;4448437;32;20644;-55
2021/09/30 12:47:40;;;;;;;21.92;14.68;;;;;;;;;;4449182;32;20280;-55
2021/09/30 12:50:18;;;;;;;20.70;13.20;;;;;;;;;;4449458;32;20295;-55
2021/09/30 12:52:44;;;;;;;23.42;13.93;;;;;;;;;;4450195;32;20266;-53
2021/09/30 12:55:16;;;;;;;23.15;14.20;;;;;;;;;;4449375;32;20309;-54
2021/09/30 12:57:41;;;;;;;21.62;14.85;;;;;;;;;;4447993;32;20259;-54
2021/09/30 13:00:09;;;;;;;17.90;14.85;;;;;;;;;;4448438;32;20278;-53
2021/09/30 13:02:35;;;;;;;18.42;13.75;;;;;;;;;;4447192;32;20252;-53
2021/09/30 13:05:01;;;;;;;17.42;12.35;;;;;;;;;;4447586;32;20341;-54
2021/09/30 13:07:45;;;;;;;26.70;13.77;;;;;;;;;;4448040;32;20660;-54
2021/09/30 13:10:12;;;;;;;20.80;13.60;;;;;;;;;;4447939;32;20308;-53
2021/09/30 13:12:38;;;;;;;28.12;14.00;;;;;;;;;;4449087;32;20216;-54
2021/09/30 13:15:04;;;;;;;18.87;12.35;;;;;;;;;;4449847;32;20267;-54
2021/09/30 13:17:30;;;;;;;18.45;12.57;;;;;;;;;;4449988;32;20369;-55
2021/09/30 13:19:58;;;;;;;18.12;13.32;;;;;;;;;;4449705;32;20349;-54
2021/09/30 13:22:27;;;;;;;22.37;14.65;;;;;;;;;;4443795;32;20298;-54
2021/09/30 13:24:54;;;;;;;19.20;13.43;;;;;;;;;;4449741;32;20291;-54
2021/09/30 13:27:29;;;;;;;20.00;13.62;;;;;;;;;;4449607;32;20232;-54
2021/09/30 13:29:56;;;;;;;17.05;13.10;;;;;;;;;;4450007;32;20184;-54
2021/09/30 13:32:25;;;;;;;16.40;13.20;;;;;;;;;;4449809;32;20323;-55
2021/09/30 13:34:51;;;;;;;19.80;13.05;;;;;;;;;;4449253;32;20709;-54
2021/09/30 13:37:17;;;;;;;16.40;13.00;;;;;;;;;;4447912;32;20339;-53
2021/09/30 13:39:43;;;;;;;21.55;13.30;;;;;;;;;;4430207;32;20201;-54
2021/09/30 13:42:09;;;;;;;27.35;14.30;;;;;;;;;;4449409;32;20240;-54
2021/09/30 13:44:35;;;;;;;26.58;13.75;;;;;;;;;;4447668;32;20358;-55
2021/09/30 13:47:01;;;;;;;18.20;13.10;;;;;;;;;;4447690;32;20201;-54
2021/09/30 13:49:26;;;;;;;17.15;13.25;;;;;;;;;;4449331;32;20520;-55
2021/09/30 13:51:52;;;;;;;19.92;13.80;;;;;;;;;;4439998;32;20646;-54
2021/09/30 13:54:17;;;;;;;18.70;14.02;;;;;;;;;;4431399;32;20248;-53
2021/09/30 13:56:43;;;;;;;16.58;12.82;;;;;;;;;;4437155;32;20228;-53
2021/09/30 13:59:08;;;;;;;20.92;14.52;;;;;;;;;;4438469;32;20236;-54
2021/09/30 14:01:34;;;;;;;24.02;13.95;;;;;;;;;;4446587;32;20643;-54
2021/09/30 14:03:59;;;;;;;19.45;14.00;;;;;;;;;;4439027;32;20217;-54
2021/09/30 14:06:25;;;;;;;24.55;13.65;;;;;;;;;;4432687;32;20316;-55
2021/09/30 14:08:53;;;;;;;20.98;12.73;;;;;;;;;;4444620;32;20239;-54
2021/09/30 14:11:21;;;;;;;23.52;15.35;;;;;;;;;;4445047;32;20252;-54
2021/09/30 14:13:47;;;;;;;18.30;12.45;;;;;;;;;;4433797;32;20309;-54
2021/09/30 14:16:13;;;;;;;19.52;13.65;;;;;;;;;;4433075;32;20303;-55
2021/09/30 14:18:38;;;;;;;28.83;13.85;;;;;;;;;;4437491;32;20234;-54
2021/09/30 14:21:04;;;;;;;21.08;13.68;;;;;;;;;;4442430;32;20531;-54
2021/09/30 14:23:30;;;;;;;20.65;14.20;;;;;;;;;;4441999;32;20322;-54
2021/09/30 14:25:58;;;;;;;19.50;13.20;;;;;;;;;;4439033;32;20284;-54
2021/09/30 14:28:24;;;;;;;19.58;13.15;;;;;;;;;;4449429;32;20275;-55
2021/09/30 14:30:50;;;;;;;20.42;13.90;;;;;;;;;;4445067;32;20262;-55
2021/09/30 14:33:16;;;;;;;18.52;13.23;;;;;;;;;;4431617;32;20331;-54
2021/09/30 14:35:41;;;;;;;22.33;13.70;;;;;;;;;;4443101;32;20382;-54
2021/09/30 14:38:06;;;;;;;22.23;15.20;;;;;;;;;;4447797;32;20239;-53
2021/09/30 14:40:32;;;;;;;20.60;14.15;;;;;;;;;;4447944;32;20317;-53
2021/09/30 14:42:58;;;;;;;17.37;13.10;;;;;;;;;;4446505;32;20266;-54
2021/09/30 14:45:27;;;;;;;24.10;12.80;;;;;;;;;;4448036;32;20318;-54
2021/09/30 14:47:52;;;;;;;21.83;13.65;;;;;;;;;;4447572;32;20213;-54
2021/09/30 14:50:18;;;;;;;23.45;14.23;;;;;;;;;;4446887;32;20337;-53
2021/09/30 14:52:43;;;;;;;18.60;12.65;;;;;;;;;;4446039;32;20336;-52
2021/09/30 14:55:09;;;;;;;22.70;13.93;;;;;;;;;;4446065;32;20237;-52
2021/09/30 14:57:35;;;;;;;38.13;15.23;;;;;;;;;;4448250;32;20232;-52
2021/09/30 15:00:00;;;;;;;25.10;13.32;;;;;;;;;;4447230;32;20728;-53
2021/09/30 15:02:27;;;;;;;30.33;14.85;;;;;;;;;;4448034;32;20247;-53
2021/09/30 15:04:53;;;;;;;20.15;14.43;;;;;;;;;;4447942;32;20362;-54
2021/09/30 15:07:22;;;;;;;26.95;14.25;;;;;;;;;;4447930;32;20217;-53
2021/09/30 15:09:48;;;;;;;22.80;13.43;;;;;;;;;;4448389;32;20204;-54
2021/09/30 15:12:13;;;;;;;24.25;15.98;;;;;;;;;;4448042;32;20624;-53
2021/09/30 15:14:38;;;;;;;29.83;13.48;;;;;;;;;;4448249;32;20387;-52
2021/09/30 15:18:07;;;;;;;24.90;14.93;;;;;;;;;;4438001;32;20236;-53
2021/09/30 15:22:39;;;;;;;21.95;13.05;;;;;;;;;;4446594;32;20257;-52
2021/09/30 15:25:06;;;;;;;22.48;13.90;;;;;;;;;;4446792;32;20205;-52
2021/09/30 15:27:32;;;;;;;25.23;14.60;;;;;;;;;;4438495;32;20372;-52
2021/09/30 15:29:57;;;;;;;34.78;16.90;;;;;;;;;;4437646;32;20283;-53
2021/09/30 15:32:23;;;;;;;34.25;16.30;;;;;;;;;;4446810;32;20219;-53
2021/09/30 15:34:49;;;;;;;27.87;15.93;;;;;;;;;;4434360;32;20601;-54
2021/09/30 15:37:15;;;;;;;19.83;14.63;;;;;;;;;;4443886;32;20228;-52
2021/09/30 15:39:40;;;;;;;21.55;17.23;;;;;;;;;;4436615;32;20818;-54
2021/09/30 15:42:07;;;;;;;35.10;15.70;;;;;;;;;;4446831;32;20251;-52
2021/09/30 15:44:34;;;;;;;24.52;15.85;;;;;;;;;;4446890;32;20299;-53
2021/09/30 15:46:59;;;;;;;30.48;16.08;;;;;;;;;;4446145;32;20246;-53
2021/09/30 15:49:25;;;;;;;24.95;13.45;;;;;;;;;;4440024;32;20331;-53
2021/09/30 15:51:50;;;;;;;23.20;15.50;;;;;;;;;;4446548;32;20254;-53
2021/09/30 15:54:16;;;;;;;23.67;15.02;;;;;;;;;;4446010;32;20268;-53
2021/09/30 15:56:41;;;;;;;29.85;14.77;;;;;;;;;;4445738;32;20271;-53
2021/09/30 15:59:07;;;;;;;24.10;14.93;;;;;;;;;;4433961;32;20296;-53
2021/09/30 16:01:33;;;;;;;20.25;15.35;;;;;;;;;;4442985;32;20571;-53
2021/09/30 16:03:59;;;;;;;25.10;14.68;;;;;;;;;;4437037;32;20275;-54
2021/09/30 16:06:25;;;;;;;24.80;15.63;;;;;;;;;;4436936;32;20264;-53
2021/09/30 16:08:50;;;;;;;28.77;15.27;;;;;;;;;;4443165;32;20687;-53
2021/09/30 16:11:16;;;;;;;29.50;17.37;;;;;;;;;;4431143;32;20235;-53
2021/09/30 16:13:43;;;;;;;21.30;14.55;;;;;;;;;;4433995;32;20329;-53
2021/09/30 16:16:09;;;;;;;24.42;14.95;;;;;;;;;;4439561;32;20221;-53
2021/09/30 16:18:36;;;;;;;21.35;15.55;;;;;;;;;;4441660;32;20297;-53
2021/09/30 16:21:11;;;;;;;24.98;16.12;;;;;;;;;;4433539;32;20629;-53
2021/09/30 16:23:38;;;;;;;27.98;16.27;;;;;;;;;;4435728;32;20457;-55
2021/09/30 16:26:05;;;;;;;26.92;19.40;;;;;;;;;;4438586;32;20300;-53
2021/09/30 16:28:30;;;;;;;29.02;19.30;;;;;;;;;;4441450;32;20255;-52
2021/09/30 16:30:56;;;;;;;33.67;19.75;;;;;;;;;;4434504;32;20291;-53
2021/09/30 16:33:23;;;;;;;31.15;16.65;;;;;;;;;;4438953;32;20303;-53
2021/09/30 16:35:49;;;;;;;22.90;16.70;;;;;;;;;;4441483;32;20656;-53
2021/09/30 16:38:17;;;;;;;28.60;19.77;;;;;;;;;;4436447;32;20232;-53
2021/09/30 16:40:43;;;;;;;25.37;17.73;;;;;;;;;;4445180;32;20239;-53
2021/09/30 16:43:09;;;;;;;23.10;16.87;;;;;;;;;;4461215;32;20274;-53
2021/09/30 16:45:34;;;;;;;21.98;16.83;;;;;;;;;;4462834;32;20275;-53
2021/09/30 16:47:59;;;;;;;28.58;15.77;;;;;;;;;;4462118;32;20632;-53
2021/09/30 16:50:25;;;;;;;30.02;18.52;;;;;;;;;;4447059;32;20303;-53
2021/09/30 16:52:50;;;;;;;28.60;15.93;;;;;;;;;;4447149;32;20336;-52
2021/09/30 16:55:18;;;;;;;99.57;33.33;;;;;;;;;;4445942;32;20315;-53
2021/09/30 16:57:45;;;;;;;29.92;20.05;;;;;;;;;;4447112;32;20290;-53
2021/09/30 17:00:14;;;;;;;26.75;15.88;;;;;;;;;;4447456;32;20220;-53
2021/09/30 17:02:39;;;;;;;34.92;18.35;;;;;;;;;;4446408;32;20681;-53
2021/09/30 17:05:06;;;;;;;28.62;15.57;;;;;;;;;;4447204;32;20321;-53
2021/09/30 17:07:31;;;;;;;20.30;12.15;;;;;;;;;;4446879;32;20321;-53
2021/09/30 17:09:57;;;;;;;40.00;14.90;;;;;;;;;;4447132;32;20684;-55
2021/09/30 17:12:22;;;;;;;13.23;9.70;;;;;;;;;;4447185;32;20232;-52
2021/09/30 17:14:48;;;;;;;13.77;7.25;;;;;;;;;;4446935;32;20354;-55
2021/09/30 17:17:14;;;;;;;9.93;6.62;;;;;;;;;;4446764;32;20343;-53
2021/09/30 17:19:39;;;;;;;13.85;7.80;;;;;;;;;;4446769;32;20287;-52
2021/09/30 17:22:06;;;;;;;16.37;9.90;;;;;;;;;;4445699;32;20781;-52
2021/09/30 17:24:33;;;;;;;24.75;10.95;;;;;;;;;;4442697;32;20247;-53
2021/09/30 17:27:01;;;;;;;11.23;8.32;;;;;;;;;;4446610;32;20642;-53
2021/09/30 17:29:28;;;;;;;20.25;9.63;;;;;;;;;;4447276;32;20311;-53